Time,TemperatureF,DewpointF,PressureIn,WindDirection,WindDirectionDegrees,WindSpeedMPH,WindSpeedGustMPH,Humidity,HourlyPrecipIn,Conditions,Clouds,dailyrainin,SoftwareType,DateUTC
2013-01-30 00:05:00,26.6,15.0,28.64,NW,324,3.1,3.1,61,0.00,,---,0.00,VWS V14.01,2013-01-30 06:05:00,
2013-01-30 00:15:00,26.4,14.8,28.67,NNW,331,0.0,0.0,61,0.00,,---,0.00,VWS V14.01,2013-01-30 06:15:00,
2013-01-30 00:20:00,26.4,14.8,28.67,NW,323,2.7,2.7,61,0.00,,---,0.00,VWS V14.01,2013-01-30 06:20:00,
2013-01-30 00:30:00,26.1,14.8,28.64,NNW,335,3.1,3.1,62,0.00,,---,0.00,VWS V14.01,2013-01-30 06:30:00,
2013-01-30 00:35:00,26.1,14.8,28.64,NNW,345,4.9,4.9,62,0.00,,---,0.00,VWS V14.01,2013-01-30 06:35:00,
2013-01-30 00:40:00,25.9,14.7,28.64,NE,44,2.7,2.7,62,0.00,,---,0.00,VWS V14.01,2013-01-30 06:40:00,
2013-01-30 00:50:00,25.7,14.5,28.64,NNW,342,4.9,4.9,62,0.00,,---,0.00,VWS V14.01,2013-01-30 06:50:00,
2013-01-30 00:55:00,25.5,14.3,28.64,NW,308,3.6,3.6,62,0.00,,---,0.00,VWS V14.01,2013-01-30 06:55:00,
2013-01-30 01:05:00,25.3,14.2,28.61,NNW,327,3.1,3.1,62,0.00,,---,0.00,VWS V14.01,2013-01-30 07:05:00,
2013-01-30 01:10:00,25.2,14.0,28.61,North,357,3.6,3.6,62,0.00,,---,0.00,VWS V14.01,2013-01-30 07:10:00,
2013-01-30 01:15:00,25.0,13.8,28.61,NW,321,3.6,3.6,62,0.00,,---,0.00,VWS V14.01,2013-01-30 07:15:00,
2013-01-30 01:20:00,24.8,14.0,28.61,NNE,26,0.0,0.0,63,0.00,,---,0.00,VWS V14.01,2013-01-30 07:20:00,
2013-01-30 01:30:00,24.6,14.2,28.61,NNE,23,5.4,5.4,64,0.00,,---,0.00,VWS V14.01,2013-01-30 07:30:00,
2013-01-30 01:40:00,24.4,14.0,28.61,NW,325,3.6,3.6,64,0.00,,---,0.00,VWS V14.01,2013-01-30 07:40:00,
2013-01-30 01:50:00,24.3,13.9,28.61,West,265,3.1,3.1,64,0.00,,---,0.00,VWS V14.01,2013-01-30 07:50:00,
2013-01-30 01:55:00,24.3,14.2,28.61,North,353,4.0,4.0,65,0.00,,---,0.00,VWS V14.01,2013-01-30 07:55:00,
2013-01-30 02:05:00,24.1,14.0,28.61,NNW,327,3.1,3.1,65,0.00,,---,0.00,VWS V14.01,2013-01-30 08:05:00,
2013-01-30 02:15:00,23.9,13.9,28.61,NNW,327,4.0,4.0,65,0.00,,---,0.00,VWS V14.01,2013-01-30 08:15:00,
2013-01-30 02:25:00,23.9,13.9,28.61,NNW,339,2.7,2.7,65,0.00,,---,0.00,VWS V14.01,2013-01-30 08:25:00,
2013-01-30 02:35:00,24.4,15.4,28.61,NW,313,0.0,0.0,68,0.00,,---,0.00,VWS V14.01,2013-01-30 08:35:00,
2013-01-30 02:40:00,24.3,15.2,28.61,NNW,335,2.7,2.7,68,0.00,,---,0.00,VWS V14.01,2013-01-30 08:40:00,
2013-01-30 02:50:00,24.1,14.4,28.61,North,353,5.8,5.8,66,0.00,,---,0.00,VWS V14.01,2013-01-30 08:50:00,
2013-01-30 02:55:00,24.1,14.4,28.61,North,353,0.0,0.0,66,0.00,,---,0.00,VWS V14.01,2013-01-30 08:55:00,
2013-01-30 03:00:00,24.1,14.4,28.61,NW,312,3.6,3.6,66,0.00,,---,0.00,VWS V14.01,2013-01-30 09:00:00,
2013-01-30 03:10:00,24.1,14.4,28.61,WNW,297,5.4,5.4,66,0.00,,---,0.00,VWS V14.01,2013-01-30 09:10:00,
2013-01-30 03:15:00,24.1,14.4,28.61,NNW,346,0.0,0.0,66,0.00,,---,0.00,VWS V14.01,2013-01-30 09:15:00,
2013-01-30 03:25:00,24.3,14.9,28.61,NW,315,0.0,0.0,67,0.00,,---,0.00,VWS V14.01,2013-01-30 09:25:00,
2013-01-30 03:35:00,24.3,15.2,28.61,WNW,293,0.0,0.0,68,0.00,,---,0.00,VWS V14.01,2013-01-30 09:35:00,
2013-01-30 03:40:00,24.3,15.2,28.61,WNW,297,2.2,2.2,68,0.00,,---,0.00,VWS V14.01,2013-01-30 09:40:00,
2013-01-30 03:50:00,24.4,15.7,28.61,North,353,5.4,5.4,69,0.00,,---,0.00,VWS V14.01,2013-01-30 09:50:00,
2013-01-30 04:00:00,24.4,15.7,28.61,NNW,339,3.6,3.6,69,0.00,,---,0.00,VWS V14.01,2013-01-30 10:00:00,
2013-01-30 04:10:00,24.3,15.2,28.61,NNW,341,0.0,0.0,68,0.00,,---,0.00,VWS V14.01,2013-01-30 10:10:00,
2013-01-30 04:20:00,23.9,14.6,28.61,NNW,340,4.9,4.9,67,0.00,,---,0.00,VWS V14.01,2013-01-30 10:20:00,
2013-01-30 04:25:00,23.7,14.0,28.61,NNW,329,5.8,5.8,66,0.00,,---,0.00,VWS V14.01,2013-01-30 10:25:00,
2013-01-30 04:35:00,23.5,13.5,28.61,North,353,0.0,0.0,65,0.00,,---,0.00,VWS V14.01,2013-01-30 10:35:00,
2013-01-30 04:45:00,23.4,13.4,28.61,WNW,287,3.1,3.1,65,0.00,,---,0.00,VWS V14.01,2013-01-30 10:45:00,
2013-01-30 04:55:00,23.2,12.8,28.61,NNW,328,4.0,4.0,64,0.00,,---,0.00,VWS V14.01,2013-01-30 10:55:00,
2013-01-30 05:05:00,23.2,13.2,28.61,NNW,348,2.7,2.7,65,0.00,,---,0.00,VWS V14.01,2013-01-30 11:05:00,
2013-01-30 05:10:00,23.2,13.2,28.61,North,357,8.7,8.7,65,0.00,,---,0.00,VWS V14.01,2013-01-30 11:10:00,
2013-01-30 05:15:00,23.0,13.4,28.59,NW,318,6.3,6.3,66,0.00,,---,0.00,VWS V14.01,2013-01-30 11:15:00,
2013-01-30 05:20:00,23.0,13.4,28.59,NNW,332,5.8,5.8,66,0.00,,---,0.00,VWS V14.01,2013-01-30 11:20:00,
2013-01-30 05:30:00,22.5,12.5,28.59,NNW,332,6.3,6.3,65,0.00,,---,0.00,VWS V14.01,2013-01-30 11:30:00,
2013-01-30 05:35:00,22.1,11.8,28.59,NW,321,5.8,5.8,64,0.00,,---,0.00,VWS V14.01,2013-01-30 11:35:00,
2013-01-30 05:40:00,22.1,11.8,28.59,West,269,3.1,3.1,64,0.00,,---,0.00,VWS V14.01,2013-01-30 11:40:00,
2013-01-30 05:45:00,21.7,11.1,28.61,NNW,332,4.0,4.0,63,0.00,,---,0.00,VWS V14.01,2013-01-30 11:45:00,
2013-01-30 05:55:00,21.4,10.8,28.61,NW,304,5.4,5.4,63,0.00,,---,0.00,VWS V14.01,2013-01-30 11:55:00,
2013-01-30 06:05:00,21.2,10.6,28.61,NNW,327,4.9,4.9,63,0.00,,---,0.00,VWS V14.01,2013-01-30 12:05:00,
2013-01-30 06:10:00,21.4,11.5,28.61,NNW,337,2.7,2.7,65,0.00,,---,0.00,VWS V14.01,2013-01-30 12:10:00,
2013-01-30 06:20:00,21.0,10.8,28.61,NW,315,3.6,3.6,64,0.00,,---,0.00,VWS V14.01,2013-01-30 12:20:00,
2013-01-30 06:30:00,20.7,10.1,28.61,NW,318,4.0,4.0,63,0.00,,---,0.00,VWS V14.01,2013-01-30 12:30:00,
2013-01-30 06:35:00,20.3,9.4,28.61,NW,317,5.4,5.4,62,0.00,,---,0.00,VWS V14.01,2013-01-30 12:35:00,
2013-01-30 06:45:00,20.3,9.7,28.61,WNW,292,5.8,5.8,63,0.00,,---,0.00,VWS V14.01,2013-01-30 12:45:00,
2013-01-30 06:50:00,20.1,9.6,28.61,WNW,284,5.8,5.8,63,0.00,,---,0.00,VWS V14.01,2013-01-30 12:50:00,
2013-01-30 06:55:00,19.8,8.5,28.61,North,349,3.6,3.6,61,0.00,,---,0.00,VWS V14.01,2013-01-30 12:55:00,
2013-01-30 07:05:00,19.0,7.8,28.61,West,271,5.4,5.4,61,0.00,,---,0.00,VWS V14.01,2013-01-30 13:05:00,
2013-01-30 07:15:00,18.5,6.9,28.59,NW,313,3.6,3.6,60,0.00,,---,0.00,VWS V14.01,2013-01-30 13:15:00,
2013-01-30 07:20:00,18.3,6.8,28.59,NNW,334,7.2,7.2,60,0.00,,---,0.00,VWS V14.01,2013-01-30 13:20:00,
2013-01-30 07:30:00,17.6,5.7,28.59,NW,324,5.4,5.4,59,0.00,,---,0.00,VWS V14.01,2013-01-30 13:30:00,
2013-01-30 07:40:00,17.2,5.4,28.59,NW,305,4.0,4.0,59,0.00,,---,0.00,VWS V14.01,2013-01-30 13:40:00,
2013-01-30 07:45:00,17.1,5.2,28.59,WNW,298,2.7,2.7,59,0.00,,---,0.00,VWS V14.01,2013-01-30 13:45:00,
2013-01-30 07:55:00,16.9,5.0,28.59,WNW,283,5.4,5.4,59,0.00,,---,0.00,VWS V14.01,2013-01-30 13:55:00,
2013-01-30 08:05:00,16.5,4.3,28.59,North,357,2.7,2.7,58,0.00,,---,0.00,VWS V14.01,2013-01-30 14:05:00,
2013-01-30 08:15:00,16.5,4.3,28.61,NW,314,9.2,9.2,58,0.00,,---,0.00,VWS V14.01,2013-01-30 14:15:00,
2013-01-30 08:25:00,16.5,4.3,28.61,NNW,329,8.1,8.1,58,0.00,,---,0.00,VWS V14.01,2013-01-30 14:25:00,
2013-01-30 08:30:00,16.3,3.8,28.61,North,357,4.0,4.0,57,0.00,,---,0.00,VWS V14.01,2013-01-30 14:30:00,
2013-01-30 08:40:00,16.3,3.8,28.61,North,353,2.2,2.2,57,0.00,,---,0.00,VWS V14.01,2013-01-30 14:40:00,
2013-01-30 08:50:00,16.5,4.3,28.61,NNW,327,2.2,2.2,58,0.00,,---,0.00,VWS V14.01,2013-01-30 14:50:00,
2013-01-30 09:00:00,16.5,4.0,28.61,WNW,288,4.0,4.0,57,0.00,,---,0.00,VWS V14.01,2013-01-30 15:00:00,
2013-01-30 09:05:00,16.5,4.0,28.61,NNW,333,3.6,3.6,57,0.00,,---,0.00,VWS V14.01,2013-01-30 15:05:00,
2013-01-30 09:15:00,16.5,4.0,28.61,NNW,334,2.2,2.2,57,0.00,,---,0.00,VWS V14.01,2013-01-30 15:15:00,
2013-01-30 09:25:00,16.5,3.6,28.61,WNW,295,4.0,4.0,56,0.00,,---,0.00,VWS V14.01,2013-01-30 15:25:00,
2013-01-30 09:35:00,16.5,3.6,28.61,NNE,20,5.4,5.4,56,0.00,,---,0.00,VWS V14.01,2013-01-30 15:35:00,
2013-01-30 09:45:00,16.5,3.6,28.61,North,353,3.6,3.6,56,0.00,,---,0.00,VWS V14.01,2013-01-30 15:45:00,
2013-01-30 09:50:00,16.5,3.6,28.61,WNW,284,5.4,5.4,56,0.00,,---,0.00,VWS V14.01,2013-01-30 15:50:00,
2013-01-30 10:00:00,16.7,3.7,28.61,West,279,4.5,4.5,56,0.00,,---,0.00,VWS V14.01,2013-01-30 16:00:00,
2013-01-30 10:05:00,16.9,3.5,28.61,WNW,296,4.0,4.0,55,0.00,,---,0.00,VWS V14.01,2013-01-30 16:05:00,
2013-01-30 10:10:00,16.9,3.9,28.61,North,6,6.3,6.3,56,0.00,,---,0.00,VWS V14.01,2013-01-30 16:10:00,
2013-01-30 10:20:00,16.7,3.3,28.61,NW,315,2.7,2.7,55,0.00,,---,0.00,VWS V14.01,2013-01-30 16:20:00,
2013-01-30 10:25:00,16.9,3.5,28.61,North,353,2.2,2.2,55,0.00,,---,0.00,VWS V14.01,2013-01-30 16:25:00,
2013-01-30 10:35:00,17.1,3.7,28.61,NW,320,5.4,5.4,55,0.00,,---,0.00,VWS V14.01,2013-01-30 16:35:00,
2013-01-30 10:45:00,16.9,3.5,28.61,NW,310,7.6,7.6,55,0.00,,---,0.00,VWS V14.01,2013-01-30 16:45:00,
2013-01-30 10:50:00,16.9,3.5,28.61,NW,315,7.6,7.6,55,0.00,,---,0.00,VWS V14.01,2013-01-30 16:50:00,
2013-01-30 11:00:00,16.9,3.1,28.61,NW,326,5.8,5.8,54,0.00,,---,0.00,VWS V14.01,2013-01-30 17:00:00,
2013-01-30 11:05:00,16.9,3.1,28.61,NW,324,8.1,8.1,54,0.00,,---,0.00,VWS V14.01,2013-01-30 17:05:00,
2013-01-30 11:10:00,16.9,3.1,28.61,WNW,301,4.0,4.0,54,0.00,,---,0.00,VWS V14.01,2013-01-30 17:10:00,
2013-01-30 11:20:00,16.7,3.3,28.61,NW,322,3.1,3.1,55,0.00,,---,0.00,VWS V14.01,2013-01-30 17:20:00,
2013-01-30 11:30:00,16.9,3.5,28.61,NNW,327,5.4,5.4,55,0.00,,---,0.00,VWS V14.01,2013-01-30 17:30:00,
2013-01-30 11:35:00,16.7,3.3,28.61,NNW,333,6.3,6.3,55,0.00,,---,0.00,VWS V14.01,2013-01-30 17:35:00,
2013-01-30 11:40:00,16.7,3.3,28.61,NW,312,6.3,6.3,55,0.00,,---,0.00,VWS V14.01,2013-01-30 17:40:00,
2013-01-30 11:50:00,16.5,2.8,28.61,NW,312,3.6,3.6,54,0.00,,---,0.00,VWS V14.01,2013-01-30 17:50:00,
2013-01-30 11:55:00,16.2,2.5,28.61,WNW,303,5.4,5.4,54,0.00,,---,0.00,VWS V14.01,2013-01-30 17:55:00,
2013-01-30 12:05:00,16.3,3.0,28.59,NNW,346,6.7,6.7,55,0.00,,---,0.00,VWS V14.01,2013-01-30 18:05:00,
2013-01-30 12:10:00,16.5,3.2,28.59,NW,311,7.6,7.6,55,0.00,,---,0.00,VWS V14.01,2013-01-30 18:10:00,
2013-01-30 12:15:00,16.7,3.3,28.59,WNW,294,5.8,5.8,55,0.00,,---,0.00,VWS V14.01,2013-01-30 18:15:00,
2013-01-30 12:20:00,16.5,2.8,28.59,NW,316,7.2,7.2,54,0.00,,---,0.00,VWS V14.01,2013-01-30 18:20:00,
2013-01-30 12:25:00,16.7,3.0,28.59,NW,314,5.8,5.8,54,0.00,,---,0.00,VWS V14.01,2013-01-30 18:25:00,
2013-01-30 12:30:00,16.7,3.0,28.61,WNW,301,6.3,6.3,54,0.00,,---,0.00,VWS V14.01,2013-01-30 18:30:00,
2013-01-30 12:40:00,16.7,2.5,28.61,NNW,333,3.1,3.1,53,0.00,,---,0.00,VWS V14.01,2013-01-30 18:40:00,
2013-01-30 12:45:00,16.7,2.5,28.59,NNW,348,4.9,4.9,53,0.00,,---,0.00,VWS V14.01,2013-01-30 18:45:00,
2013-01-30 12:55:00,17.1,2.9,28.59,NNW,345,5.8,5.8,53,0.00,,---,0.00,VWS V14.01,2013-01-30 18:55:00,
2013-01-30 13:05:00,17.1,2.9,28.59,West,269,7.6,7.6,53,0.00,,---,0.00,VWS V14.01,2013-01-30 19:05:00,
2013-01-30 13:10:00,17.1,2.9,28.59,NW,318,6.3,6.3,53,0.00,,---,0.00,VWS V14.01,2013-01-30 19:10:00,
2013-01-30 13:20:00,16.9,2.3,28.59,NNW,346,6.3,6.3,52,0.00,,---,0.00,VWS V14.01,2013-01-30 19:20:00,
2013-01-30 13:25:00,16.9,1.9,28.59,WNW,294,6.3,6.3,51,0.00,,---,0.00,VWS V14.01,2013-01-30 19:25:00,
2013-01-30 13:30:00,16.5,1.1,28.59,WNW,291,4.0,4.0,50,0.00,,---,0.00,VWS V14.01,2013-01-30 19:30:00,
2013-01-30 13:40:00,16.5,1.6,28.59,North,353,11.0,11.0,51,0.00,,---,0.00,VWS V14.01,2013-01-30 19:40:00,
2013-01-30 13:50:00,16.9,1.5,28.59,North,353,5.4,5.4,50,0.00,,---,0.00,VWS V14.01,2013-01-30 19:50:00,
2013-01-30 13:55:00,16.9,1.0,28.59,WNW,289,5.8,5.8,49,0.00,,---,0.00,VWS V14.01,2013-01-30 19:55:00,
2013-01-30 14:00:00,16.7,0.9,28.59,NNW,329,4.0,4.0,49,0.00,,---,0.00,VWS V14.01,2013-01-30 20:00:00,
2013-01-30 14:05:00,16.7,1.3,28.59,West,279,4.0,4.0,50,0.00,,---,0.00,VWS V14.01,2013-01-30 20:05:00,
2013-01-30 14:10:00,16.7,1.3,28.59,WNW,287,4.0,4.0,50,0.00,,---,0.00,VWS V14.01,2013-01-30 20:10:00,
2013-01-30 14:15:00,16.9,1.5,28.59,NNW,338,5.4,5.4,50,0.00,,---,0.00,VWS V14.01,2013-01-30 20:15:00,
2013-01-30 14:25:00,16.5,1.1,28.59,NNW,343,5.8,5.8,50,0.00,,---,0.00,VWS V14.01,2013-01-30 20:25:00,
2013-01-30 14:30:00,16.3,1.0,28.59,NNW,327,2.7,2.7,50,0.00,,---,0.00,VWS V14.01,2013-01-30 20:30:00,
2013-01-30 14:40:00,16.5,1.6,28.59,NNW,342,4.0,4.0,51,0.00,,---,0.00,VWS V14.01,2013-01-30 20:40:00,
2013-01-30 14:45:00,16.5,1.6,28.59,NNW,332,3.1,3.1,51,0.00,,---,0.00,VWS V14.01,2013-01-30 20:45:00,
2013-01-30 14:50:00,16.5,1.6,28.59,NNW,337,2.7,2.7,51,0.00,,---,0.00,VWS V14.01,2013-01-30 20:50:00,
2013-01-30 14:55:00,16.5,2.0,28.59,WNW,290,6.3,6.3,52,0.00,,---,0.00,VWS V14.01,2013-01-30 20:55:00,
2013-01-30 15:05:00,16.5,2.4,28.59,WNW,296,8.7,8.7,53,0.00,,---,0.00,VWS V14.01,2013-01-30 21:05:00,
2013-01-30 15:15:00,16.7,3.0,28.59,NW,317,5.4,5.4,54,0.00,,---,0.00,VWS V14.01,2013-01-30 21:15:00,
2013-01-30 15:25:00,16.7,3.0,28.59,NNW,332,8.3,8.3,54,0.00,,---,0.00,VWS V14.01,2013-01-30 21:25:00,
2013-01-30 15:35:00,16.7,2.5,28.59,NNW,341,4.9,4.9,53,0.00,,---,0.00,VWS V14.01,2013-01-30 21:35:00,
2013-01-30 15:40:00,16.5,2.0,28.59,NW,317,5.8,5.8,52,0.00,,---,0.00,VWS V14.01,2013-01-30 21:40:00,
2013-01-30 15:45:00,16.3,2.2,28.59,NW,325,6.3,6.3,53,0.00,,---,0.00,VWS V14.01,2013-01-30 21:45:00,
2013-01-30 15:50:00,16.3,2.2,28.59,NNW,339,6.7,6.7,53,0.00,,---,0.00,VWS V14.01,2013-01-30 21:50:00,
2013-01-30 16:00:00,16.2,2.0,28.59,NNW,331,6.3,6.3,53,0.00,,---,0.00,VWS V14.01,2013-01-30 22:00:00,
2013-01-30 16:10:00,15.8,1.7,28.59,North,353,6.3,6.3,53,0.00,,---,0.00,VWS V14.01,2013-01-30 22:10:00,
2013-01-30 16:15:00,15.8,1.7,28.59,NW,318,8.7,8.7,53,0.00,,---,0.00,VWS V14.01,2013-01-30 22:15:00,
2013-01-30 16:20:00,15.8,1.7,28.59,NW,313,5.8,5.8,53,0.00,,---,0.00,VWS V14.01,2013-01-30 22:20:00,
2013-01-30 16:30:00,15.4,2.2,28.61,NNW,341,6.3,6.3,55,0.00,,---,0.00,VWS V14.01,2013-01-30 22:30:00,
2013-01-30 16:35:00,15.3,2.0,28.61,NNW,327,5.4,5.4,55,0.00,,---,0.00,VWS V14.01,2013-01-30 22:35:00,
2013-01-30 16:45:00,15.3,2.4,28.61,WNW,289,8.3,8.3,56,0.00,,---,0.00,VWS V14.01,2013-01-30 22:45:00,
2013-01-30 16:50:00,15.1,2.2,28.61,WNW,287,7.2,7.2,56,0.00,,---,0.00,VWS V14.01,2013-01-30 22:50:00,
2013-01-30 17:00:00,15.1,1.4,28.61,North,353,9.6,9.6,54,0.00,,---,0.00,VWS V14.01,2013-01-30 23:00:00,
2013-01-30 17:10:00,14.9,1.3,28.61,NNE,14,8.1,8.1,54,0.00,,---,0.00,VWS V14.01,2013-01-30 23:10:00,
2013-01-30 17:15:00,14.9,1.7,28.61,NW,316,4.0,4.0,55,0.00,,---,0.00,VWS V14.01,2013-01-30 23:15:00,
2013-01-30 17:25:00,14.5,2.1,28.61,NNW,333,9.6,9.6,57,0.00,,---,0.00,VWS V14.01,2013-01-30 23:25:00,
2013-01-30 17:35:00,14.4,2.3,28.61,NNW,341,4.0,4.0,58,0.00,,---,0.00,VWS V14.01,2013-01-30 23:35:00,
2013-01-30 17:45:00,14.0,2.0,28.61,WNW,301,7.6,7.6,58,0.00,,---,0.00,VWS V14.01,2013-01-30 23:45:00,
2013-01-30 17:55:00,13.6,2.0,28.61,North,357,7.6,7.6,59,0.00,,---,0.00,VWS V14.01,2013-01-30 23:55:00,
2013-01-30 18:00:00,13.5,1.8,28.61,NNW,330,4.9,4.9,59,0.00,,---,0.00,VWS V14.01,2013-01-31 00:00:00,
2013-01-30 18:10:00,13.3,1.6,28.61,NNW,334,7.2,7.2,59,0.00,,---,0.00,VWS V14.01,2013-01-31 00:10:00,
2013-01-30 18:20:00,13.1,1.5,28.61,NW,320,3.1,3.1,59,0.00,,---,0.00,VWS V14.01,2013-01-31 00:20:00,
2013-01-30 18:30:00,12.7,1.1,28.61,NW,320,5.4,5.4,59,0.00,,---,0.00,VWS V14.01,2013-01-31 00:30:00,
2013-01-30 18:35:00,12.7,1.1,28.61,SW,231,8.3,8.3,59,0.00,,---,0.00,VWS V14.01,2013-01-31 00:35:00,
2013-01-30 18:45:00,12.6,1.0,28.61,WNW,302,3.1,3.1,59,0.00,,---,0.00,VWS V14.01,2013-01-31 00:45:00,
2013-01-30 18:50:00,12.4,0.8,28.61,NW,312,5.4,5.4,59,0.00,,---,0.00,VWS V14.01,2013-01-31 00:50:00,
2013-01-30 18:55:00,12.4,0.8,28.61,NW,305,6.3,6.3,59,0.00,,---,0.00,VWS V14.01,2013-01-31 00:55:00,
2013-01-30 19:00:00,12.4,0.8,28.61,NW,307,4.0,4.0,59,0.00,,---,0.00,VWS V14.01,2013-01-31 01:00:00,
2013-01-30 19:10:00,12.2,0.6,28.61,NNW,331,6.7,6.7,59,0.00,,---,0.00,VWS V14.01,2013-01-31 01:10:00,
2013-01-30 19:20:00,12.2,0.6,28.61,NW,308,3.1,3.1,59,0.00,,---,0.00,VWS V14.01,2013-01-31 01:20:00,
2013-01-30 19:30:00,12.2,0.6,28.61,WNW,287,3.6,3.6,59,0.00,,---,0.00,VWS V14.01,2013-01-31 01:30:00,
2013-01-30 19:40:00,12.2,0.6,28.61,NW,314,2.7,2.7,59,0.00,,---,0.00,VWS V14.01,2013-01-31 01:40:00,
2013-01-30 19:45:00,12.2,0.6,28.61,WNW,302,8.1,8.1,59,0.00,,---,0.00,VWS V14.01,2013-01-31 01:45:00,
2013-01-30 19:55:00,12.0,0.4,28.61,NNW,332,6.7,6.7,59,0.00,,---,0.00,VWS V14.01,2013-01-31 01:55:00,
2013-01-30 20:05:00,11.7,0.1,28.61,NW,308,5.8,5.8,59,0.00,,---,0.00,VWS V14.01,2013-01-31 02:05:00,
2013-01-30 20:15:00,11.5,-0.1,28.61,NW,311,5.8,5.8,59,0.00,,---,0.00,VWS V14.01,2013-01-31 02:15:00,
2013-01-30 20:20:00,11.5,-0.1,28.61,NW,306,7.6,7.6,59,0.00,,---,0.00,VWS V14.01,2013-01-31 02:20:00,
2013-01-30 20:30:00,11.3,-0.2,28.61,WNW,289,5.4,5.4,59,0.00,,---,0.00,VWS V14.01,2013-01-31 02:30:00,
2013-01-30 20:40:00,11.3,-0.2,28.61,NW,307,5.8,5.8,59,0.00,,---,0.00,VWS V14.01,2013-01-31 02:40:00,
2013-01-30 20:45:00,11.3,-0.2,28.64,NW,320,8.1,8.1,59,0.00,,---,0.00,VWS V14.01,2013-01-31 02:45:00,
2013-01-30 20:55:00,11.1,-0.4,28.64,NW,304,2.7,2.7,59,0.00,,---,0.00,VWS V14.01,2013-01-31 02:55:00,
2013-01-30 21:05:00,11.1,-0.4,28.64,NW,305,6.3,6.3,59,0.00,,---,0.00,VWS V14.01,2013-01-31 03:05:00,
2013-01-30 21:10:00,10.9,-0.6,28.64,West,278,8.1,8.1,59,0.00,,---,0.00,VWS V14.01,2013-01-31 03:10:00,
2013-01-30 21:15:00,10.9,-0.6,28.64,WNW,298,8.1,8.1,59,0.00,,---,0.00,VWS V14.01,2013-01-31 03:15:00,
2013-01-30 21:25:00,10.9,-0.6,28.64,NNW,338,5.8,5.8,59,0.00,,---,0.00,VWS V14.01,2013-01-31 03:25:00,
2013-01-30 21:30:00,10.8,-0.7,28.64,NW,322,3.1,3.1,59,0.00,,---,0.00,VWS V14.01,2013-01-31 03:30:00,
2013-01-30 21:40:00,10.4,-1.1,28.64,NNW,327,8.3,8.3,59,0.00,,---,0.00,VWS V14.01,2013-01-31 03:40:00,
2013-01-30 21:50:00,10.4,-1.1,28.64,West,280,6.3,6.3,59,0.00,,---,0.00,VWS V14.01,2013-01-31 03:50:00,
2013-01-30 21:55:00,10.2,-1.2,28.64,NW,319,4.0,4.0,59,0.00,,---,0.00,VWS V14.01,2013-01-31 03:55:00,
2013-01-30 22:05:00,10.0,-1.4,28.64,NNW,348,11.9,11.9,59,0.00,,---,0.00,VWS V14.01,2013-01-31 04:05:00,
2013-01-30 22:15:00,9.9,-1.6,28.64,NW,319,5.4,5.4,59,0.00,,---,0.00,VWS V14.01,2013-01-31 04:15:00,
2013-01-30 22:25:00,9.7,-1.8,28.64,West,277,4.0,4.0,59,0.00,,---,0.00,VWS V14.01,2013-01-31 04:25:00,
2013-01-30 22:30:00,9.5,-1.9,28.64,NW,306,4.0,4.0,59,0.00,,---,0.00,VWS V14.01,2013-01-31 04:30:00,
2013-01-30 22:40:00,9.1,-2.3,28.64,NW,308,7.6,7.6,59,0.00,,---,0.00,VWS V14.01,2013-01-31 04:40:00,
2013-01-30 22:45:00,9.0,-2.4,28.64,NNW,330,5.4,5.4,59,0.00,,---,0.00,VWS V14.01,2013-01-31 04:45:00,
2013-01-30 22:50:00,8.8,-2.6,28.64,NW,322,4.0,4.0,59,0.00,,---,0.00,VWS V14.01,2013-01-31 04:50:00,
2013-01-30 22:55:00,8.8,-2.6,28.64,WNW,303,3.6,3.6,59,0.00,,---,0.00,VWS V14.01,2013-01-31 04:55:00,
2013-01-30 23:00:00,8.6,-2.8,28.64,WNW,301,8.1,8.1,59,0.00,,---,0.00,VWS V14.01,2013-01-31 05:00:00,
2013-01-30 23:10:00,8.2,-3.1,28.64,WNW,303,8.1,8.1,59,0.00,,---,0.00,VWS V14.01,2013-01-31 05:10:00,
2013-01-30 23:15:00,7.9,-3.5,28.67,NW,306,4.0,4.0,59,0.00,,---,0.00,VWS V14.01,2013-01-31 05:15:00,
2013-01-30 23:25:00,7.7,-3.6,28.67,WNW,293,3.1,3.1,59,0.00,,---,0.00,VWS V14.01,2013-01-31 05:25:00,
2013-01-30 23:30:00,7.7,-3.6,28.67,WNW,286,2.7,2.7,59,0.00,,---,0.00,VWS V14.01,2013-01-31 05:30:00,
2013-01-30 23:35:00,7.5,-3.8,28.67,WNW,291,2.7,2.7,59,0.00,,---,0.00,VWS V14.01,2013-01-31 05:35:00,
2013-01-30 23:40:00,7.3,-4.0,28.67,WNW,293,6.3,6.3,59,0.00,,---,0.00,VWS V14.01,2013-01-31 05:40:00,
2013-01-30 23:50:00,7.0,-4.3,28.67,NW,322,5.4,5.4,59,0.00,,---,0.00,VWS V14.01,2013-01-31 05:50:00,